sensor_id;sensor_type;location;lat;lon;timestamp;P1;durP1;ratioP1;P2;durP2;ratioP2
49071;SDS011;74284;52.610;10.236;2024-03-06T00:04:25;16.17;;;9.52;;
49071;SDS011;74284;52.610;10.236;2024-03-06T00:06:51;16.58;;;10.48;;
49071;SDS011;74284;52.610;10.236;2024-03-06T00:09:17;16.92;;;10.95;;
49071;SDS011;74284;52.610;10.236;2024-03-06T00:11:44;17.52;;;11.68;;
49071;SDS011;74284;52.610;10.236;2024-03-06T00:14:09;17.17;;;11.00;;
49071;SDS011;74284;52.610;10.236;2024-03-06T00:16:37;15.27;;;10.88;;
49071;SDS011;74284;52.610;10.236;2024-03-06T00:19:03;17.38;;;10.77;;
49071;SDS011;74284;52.610;10.236;2024-03-06T00:21:28;16.17;;;10.60;;
49071;SDS011;74284;52.610;10.236;2024-03-06T00:26:20;15.18;;;10.50;;
49071;SDS011;74284;52.610;10.236;2024-03-06T00:28:46;18.25;;;11.60;;
49071;SDS011;74284;52.610;10.236;2024-03-06T00:31:11;16.85;;;11.35;;
49071;SDS011;74284;52.610;10.236;2024-03-06T00:33:37;15.60;;;10.40;;
49071;SDS011;74284;52.610;10.236;2024-03-06T00:36:03;17.73;;;11.73;;
49071;SDS011;74284;52.610;10.236;2024-03-06T00:38:28;18.50;;;11.18;;
49071;SDS011;74284;52.610;10.236;2024-03-06T00:40:54;17.98;;;10.85;;
49071;SDS011;74284;52.610;10.236;2024-03-06T00:43:19;19.02;;;11.48;;
49071;SDS011;74284;52.610;10.236;2024-03-06T00:45:45;17.70;;;10.98;;
49071;SDS011;74284;52.610;10.236;2024-03-06T00:48:10;19.33;;;11.68;;
49071;SDS011;74284;52.610;10.236;2024-03-06T00:50:36;17.48;;;11.45;;
49071;SDS011;74284;52.610;10.236;2024-03-06T00:53:01;19.67;;;11.88;;
49071;SDS011;74284;52.610;10.236;2024-03-06T00:55:27;17.93;;;11.37;;
49071;SDS011;74284;52.610;10.236;2024-03-06T00:57:52;21.93;;;12.60;;
49071;SDS011;74284;52.610;10.236;2024-03-06T01:00:17;17.33;;;11.03;;
49071;SDS011;74284;52.610;10.236;2024-03-06T01:02:44;19.23;;;12.05;;
49071;SDS011;74284;52.610;10.236;2024-03-06T01:05:09;17.08;;;11.70;;
49071;SDS011;74284;52.610;10.236;2024-03-06T01:07:37;18.80;;;12.10;;
49071;SDS011;74284;52.610;10.236;2024-03-06T01:10:03;20.63;;;12.18;;
49071;SDS011;74284;52.610;10.236;2024-03-06T01:12:31;16.38;;;11.90;;
49071;SDS011;74284;52.610;10.236;2024-03-06T01:14:57;18.42;;;12.27;;
49071;SDS011;74284;52.610;10.236;2024-03-06T01:17:22;21.35;;;11.70;;
49071;SDS011;74284;52.610;10.236;2024-03-06T01:19:47;18.98;;;12.55;;
49071;SDS011;74284;52.610;10.236;2024-03-06T01:22:13;16.85;;;11.88;;
49071;SDS011;74284;52.610;10.236;2024-03-06T01:24:38;19.85;;;11.68;;
49071;SDS011;74284;52.610;10.236;2024-03-06T01:27:04;17.30;;;11.23;;
49071;SDS011;74284;52.610;10.236;2024-03-06T01:29:29;20.40;;;12.88;;
49071;SDS011;74284;52.610;10.236;2024-03-06T01:31:55;19.50;;;12.15;;
49071;SDS011;74284;52.610;10.236;2024-03-06T01:34:20;21.03;;;13.23;;
49071;SDS011;74284;52.610;10.236;2024-03-06T01:36:46;17.95;;;11.85;;
49071;SDS011;74284;52.610;10.236;2024-03-06T01:39:11;18.48;;;12.68;;
49071;SDS011;74284;52.610;10.236;2024-03-06T01:41:36;21.13;;;12.75;;
49071;SDS011;74284;52.610;10.236;2024-03-06T01:44:02;19.08;;;11.45;;
49071;SDS011;74284;52.610;10.236;2024-03-06T01:46:28;19.88;;;13.07;;
49071;SDS011;74284;52.610;10.236;2024-03-06T01:48:54;21.23;;;12.18;;
49071;SDS011;74284;52.610;10.236;2024-03-06T01:51:19;21.33;;;13.23;;
49071;SDS011;74284;52.610;10.236;2024-03-06T01:53:45;19.65;;;13.00;;
49071;SDS011;74284;52.610;10.236;2024-03-06T01:56:10;20.67;;;13.05;;
49071;SDS011;74284;52.610;10.236;2024-03-06T01:58:37;19.23;;;12.82;;
49071;SDS011;74284;52.610;10.236;2024-03-06T02:01:03;17.23;;;11.95;;
49071;SDS011;74284;52.610;10.236;2024-03-06T02:03:31;19.23;;;12.20;;
49071;SDS011;74284;52.610;10.236;2024-03-06T02:05:57;19.63;;;12.93;;
49071;SDS011;74284;52.610;10.236;2024-03-06T02:08:23;18.98;;;13.02;;
49071;SDS011;74284;52.610;10.236;2024-03-06T02:10:49;21.98;;;13.00;;
49071;SDS011;74284;52.610;10.236;2024-03-06T02:13:15;24.42;;;13.43;;
49071;SDS011;74284;52.610;10.236;2024-03-06T02:15:40;21.95;;;13.70;;
49071;SDS011;74284;52.610;10.236;2024-03-06T02:18:06;21.45;;;13.23;;
49071;SDS011;74284;52.610;10.236;2024-03-06T02:20:31;17.75;;;12.63;;
49071;SDS011;74284;52.610;10.236;2024-03-06T02:22:57;20.98;;;13.63;;
49071;SDS011;74284;52.610;10.236;2024-03-06T02:25:22;18.55;;;12.45;;
49071;SDS011;74284;52.610;10.236;2024-03-06T02:27:47;20.92;;;12.98;;
49071;SDS011;74284;52.610;10.236;2024-03-06T02:30:13;22.17;;;13.50;;
49071;SDS011;74284;52.610;10.236;2024-03-06T02:32:39;20.60;;;13.52;;
49071;SDS011;74284;52.610;10.236;2024-03-06T02:35:04;20.52;;;13.25;;
49071;SDS011;74284;52.610;10.236;2024-03-06T02:37:33;22.25;;;12.98;;
49071;SDS011;74284;52.610;10.236;2024-03-06T02:39:59;19.10;;;12.80;;
49071;SDS011;74284;52.610;10.236;2024-03-06T02:42:24;20.77;;;12.13;;
49071;SDS011;74284;52.610;10.236;2024-03-06T02:44:50;19.85;;;13.00;;
49071;SDS011;74284;52.610;10.236;2024-03-06T02:47:15;20.13;;;12.85;;
49071;SDS011;74284;52.610;10.236;2024-03-06T02:49:40;21.98;;;12.68;;
49071;SDS011;74284;52.610;10.236;2024-03-06T02:52:06;22.35;;;13.82;;
49071;SDS011;74284;52.610;10.236;2024-03-06T02:54:31;18.80;;;12.73;;
49071;SDS011;74284;52.610;10.236;2024-03-06T02:56:56;21.67;;;14.02;;
49071;SDS011;74284;52.610;10.236;2024-03-06T02:59:22;21.63;;;14.23;;
49071;SDS011;74284;52.610;10.236;2024-03-06T03:01:47;25.23;;;14.30;;
49071;SDS011;74284;52.610;10.236;2024-03-06T03:04:13;20.92;;;14.20;;
49071;SDS011;74284;52.610;10.236;2024-03-06T03:06:38;23.45;;;14.43;;
49071;SDS011;74284;52.610;10.236;2024-03-06T03:09:03;24.60;;;14.60;;
49071;SDS011;74284;52.610;10.236;2024-03-06T03:11:29;19.98;;;13.63;;
49071;SDS011;74284;52.610;10.236;2024-03-06T03:13:55;22.23;;;13.45;;
49071;SDS011;74284;52.610;10.236;2024-03-06T03:16:20;19.92;;;13.68;;
49071;SDS011;74284;52.610;10.236;2024-03-06T03:18:46;21.23;;;14.23;;
49071;SDS011;74284;52.610;10.236;2024-03-06T03:21:12;23.17;;;13.85;;
49071;SDS011;74284;52.610;10.236;2024-03-06T03:23:38;23.00;;;14.95;;
49071;SDS011;74284;52.610;10.236;2024-03-06T03:26:05;23.20;;;14.60;;
49071;SDS011;74284;52.610;10.236;2024-03-06T03:28:30;24.65;;;14.02;;
49071;SDS011;74284;52.610;10.236;2024-03-06T03:30:56;20.50;;;13.75;;
49071;SDS011;74284;52.610;10.236;2024-03-06T03:33:24;22.88;;;13.57;;
49071;SDS011;74284;52.610;10.236;2024-03-06T03:35:49;20.90;;;13.82;;
49071;SDS011;74284;52.610;10.236;2024-03-06T03:38:15;22.15;;;14.57;;
49071;SDS011;74284;52.610;10.236;2024-03-06T03:40:41;22.17;;;14.20;;
49071;SDS011;74284;52.610;10.236;2024-03-06T03:43:07;21.92;;;14.20;;
49071;SDS011;74284;52.610;10.236;2024-03-06T03:45:32;22.13;;;14.48;;
49071;SDS011;74284;52.610;10.236;2024-03-06T03:50:24;26.48;;;14.15;;
49071;SDS011;74284;52.610;10.236;2024-03-06T03:52:50;22.73;;;15.13;;
49071;SDS011;74284;52.610;10.236;2024-03-06T03:55:15;20.85;;;14.25;;
49071;SDS011;74284;52.610;10.236;2024-03-06T03:57:40;22.85;;;14.70;;
49071;SDS011;74284;52.610;10.236;2024-03-06T04:00:06;22.98;;;14.65;;
49071;SDS011;74284;52.610;10.236;2024-03-06T04:02:36;21.40;;;14.43;;
49071;SDS011;74284;52.610;10.236;2024-03-06T04:05:02;21.42;;;14.38;;
49071;SDS011;74284;52.610;10.236;2024-03-06T04:07:27;23.33;;;13.32;;
49071;SDS011;74284;52.610;10.236;2024-03-06T04:09:52;24.20;;;15.43;;
49071;SDS011;74284;52.610;10.236;2024-03-06T04:12:18;26.67;;;15.67;;
49071;SDS011;74284;52.610;10.236;2024-03-06T04:14:43;24.47;;;15.47;;
49071;SDS011;74284;52.610;10.236;2024-03-06T04:17:09;23.17;;;15.60;;
49071;SDS011;74284;52.610;10.236;2024-03-06T04:19:34;25.13;;;14.77;;
49071;SDS011;74284;52.610;10.236;2024-03-06T04:21:59;22.92;;;15.25;;
49071;SDS011;74284;52.610;10.236;2024-03-06T04:24:24;26.00;;;15.05;;
49071;SDS011;74284;52.610;10.236;2024-03-06T04:26:50;23.95;;;15.45;;
49071;SDS011;74284;52.610;10.236;2024-03-06T04:29:15;22.83;;;15.77;;
49071;SDS011;74284;52.610;10.236;2024-03-06T04:31:41;23.88;;;16.08;;
49071;SDS011;74284;52.610;10.236;2024-03-06T04:34:06;26.42;;;16.65;;
49071;SDS011;74284;52.610;10.236;2024-03-06T04:36:31;26.27;;;15.25;;
49071;SDS011;74284;52.610;10.236;2024-03-06T04:38:57;26.13;;;16.43;;
49071;SDS011;74284;52.610;10.236;2024-03-06T04:41:22;25.70;;;14.97;;
49071;SDS011;74284;52.610;10.236;2024-03-06T04:43:48;26.27;;;15.55;;
49071;SDS011;74284;52.610;10.236;2024-03-06T04:46:15;24.58;;;15.65;;
49071;SDS011;74284;52.610;10.236;2024-03-06T04:48:41;22.42;;;14.82;;
49071;SDS011;74284;52.610;10.236;2024-03-06T04:51:06;25.50;;;16.50;;
49071;SDS011;74284;52.610;10.236;2024-03-06T04:53:31;24.67;;;16.20;;
49071;SDS011;74284;52.610;10.236;2024-03-06T04:55:58;25.08;;;15.07;;
49071;SDS011;74284;52.610;10.236;2024-03-06T04:58:28;23.67;;;14.88;;
49071;SDS011;74284;52.610;10.236;2024-03-06T05:01:29;27.85;;;14.68;;
49071;SDS011;74284;52.610;10.236;2024-03-06T05:03:55;23.95;;;15.20;;
49071;SDS011;74284;52.610;10.236;2024-03-06T05:06:21;25.63;;;15.18;;
49071;SDS011;74284;52.610;10.236;2024-03-06T05:08:47;26.20;;;15.98;;
49071;SDS011;74284;52.610;10.236;2024-03-06T05:11:12;21.38;;;14.02;;
49071;SDS011;74284;52.610;10.236;2024-03-06T05:13:38;23.85;;;15.50;;
49071;SDS011;74284;52.610;10.236;2024-03-06T05:16:03;23.43;;;13.73;;
49071;SDS011;74284;52.610;10.236;2024-03-06T05:18:29;23.65;;;15.15;;
49071;SDS011;74284;52.610;10.236;2024-03-06T05:20:54;22.63;;;15.00;;
49071;SDS011;74284;52.610;10.236;2024-03-06T05:23:20;22.57;;;15.47;;
49071;SDS011;74284;52.610;10.236;2024-03-06T05:25:45;23.88;;;14.75;;
49071;SDS011;74284;52.610;10.236;2024-03-06T05:28:10;26.48;;;15.88;;
49071;SDS011;74284;52.610;10.236;2024-03-06T05:30:36;23.55;;;15.07;;
49071;SDS011;74284;52.610;10.236;2024-03-06T05:33:03;24.75;;;15.88;;
49071;SDS011;74284;52.610;10.236;2024-03-06T05:35:31;29.60;;;15.20;;
49071;SDS011;74284;52.610;10.236;2024-03-06T05:37:56;27.55;;;14.35;;
49071;SDS011;74284;52.610;10.236;2024-03-06T05:40:22;26.13;;;15.25;;
49071;SDS011;74284;52.610;10.236;2024-03-06T05:42:47;22.73;;;14.98;;
49071;SDS011;74284;52.610;10.236;2024-03-06T05:45:12;27.33;;;16.13;;
49071;SDS011;74284;52.610;10.236;2024-03-06T05:47:38;24.77;;;16.23;;
49071;SDS011;74284;52.610;10.236;2024-03-06T05:50:04;25.83;;;14.77;;
49071;SDS011;74284;52.610;10.236;2024-03-06T05:52:31;27.40;;;16.52;;
49071;SDS011;74284;52.610;10.236;2024-03-06T05:54:56;25.98;;;16.10;;
49071;SDS011;74284;52.610;10.236;2024-03-06T05:57:22;23.30;;;15.77;;
49071;SDS011;74284;52.610;10.236;2024-03-06T05:59:47;28.52;;;16.85;;
49071;SDS011;74284;52.610;10.236;2024-03-06T06:02:13;27.45;;;17.10;;
49071;SDS011;74284;52.610;10.236;2024-03-06T06:04:41;23.42;;;15.98;;
49071;SDS011;74284;52.610;10.236;2024-03-06T06:07:06;23.38;;;15.38;;
49071;SDS011;74284;52.610;10.236;2024-03-06T06:09:32;23.40;;;15.82;;
49071;SDS011;74284;52.610;10.236;2024-03-06T06:11:58;26.33;;;15.77;;
49071;SDS011;74284;52.610;10.236;2024-03-06T06:14:23;24.87;;;15.33;;
49071;SDS011;74284;52.610;10.236;2024-03-06T06:16:48;26.67;;;16.43;;
49071;SDS011;74284;52.610;10.236;2024-03-06T06:19:14;26.37;;;16.83;;
49071;SDS011;74284;52.610;10.236;2024-03-06T06:21:39;30.80;;;16.10;;
49071;SDS011;74284;52.610;10.236;2024-03-06T06:24:04;30.55;;;17.90;;
49071;SDS011;74284;52.610;10.236;2024-03-06T06:26:30;28.42;;;17.00;;
49071;SDS011;74284;52.610;10.236;2024-03-06T06:28:56;24.77;;;15.27;;
49071;SDS011;74284;52.610;10.236;2024-03-06T06:31:22;26.67;;;15.88;;
49071;SDS011;74284;52.610;10.236;2024-03-06T06:33:48;23.52;;;14.88;;
49071;SDS011;74284;52.610;10.236;2024-03-06T06:36:14;23.75;;;15.00;;
49071;SDS011;74284;52.610;10.236;2024-03-06T06:38:39;27.92;;;16.58;;
49071;SDS011;74284;52.610;10.236;2024-03-06T06:41:04;25.73;;;15.90;;
49071;SDS011;74284;52.610;10.236;2024-03-06T06:43:29;22.45;;;15.88;;
49071;SDS011;74284;52.610;10.236;2024-03-06T06:45:55;26.95;;;16.88;;
49071;SDS011;74284;52.610;10.236;2024-03-06T06:48:20;26.25;;;16.17;;
49071;SDS011;74284;52.610;10.236;2024-03-06T06:50:46;25.40;;;16.05;;
49071;SDS011;74284;52.610;10.236;2024-03-06T06:53:12;25.83;;;15.48;;
49071;SDS011;74284;52.610;10.236;2024-03-06T06:55:38;25.80;;;16.13;;
49071;SDS011;74284;52.610;10.236;2024-03-06T06:58:03;25.93;;;16.33;;
49071;SDS011;74284;52.610;10.236;2024-03-06T07:00:29;25.77;;;17.83;;
49071;SDS011;74284;52.610;10.236;2024-03-06T07:05:23;28.38;;;17.67;;
49071;SDS011;74284;52.610;10.236;2024-03-06T07:07:49;29.17;;;18.17;;
49071;SDS011;74284;52.610;10.236;2024-03-06T07:10:14;26.50;;;17.88;;
49071;SDS011;74284;52.610;10.236;2024-03-06T07:12:39;27.98;;;17.50;;
49071;SDS011;74284;52.610;10.236;2024-03-06T07:15:05;26.05;;;16.63;;
49071;SDS011;74284;52.610;10.236;2024-03-06T07:19:56;26.63;;;17.70;;
49071;SDS011;74284;52.610;10.236;2024-03-06T07:22:22;28.17;;;16.90;;
49071;SDS011;74284;52.610;10.236;2024-03-06T07:24:47;25.88;;;16.95;;
49071;SDS011;74284;52.610;10.236;2024-03-06T07:27:13;27.38;;;16.33;;
49071;SDS011;74284;52.610;10.236;2024-03-06T07:29:38;25.90;;;16.77;;
49071;SDS011;74284;52.610;10.236;2024-03-06T07:32:03;28.73;;;17.27;;
49071;SDS011;74284;52.610;10.236;2024-03-06T07:34:32;24.63;;;16.33;;
49071;SDS011;74284;52.610;10.236;2024-03-06T07:36:57;28.67;;;18.08;;
49071;SDS011;74284;52.610;10.236;2024-03-06T07:39:24;25.80;;;17.25;;
49071;SDS011;74284;52.610;10.236;2024-03-06T07:44:15;29.17;;;14.93;;
49071;SDS011;74284;52.610;10.236;2024-03-06T07:46:41;24.70;;;16.67;;
49071;SDS011;74284;52.610;10.236;2024-03-06T07:49:06;24.43;;;16.40;;
49071;SDS011;74284;52.610;10.236;2024-03-06T07:51:32;27.17;;;17.60;;
49071;SDS011;74284;52.610;10.236;2024-03-06T07:53:57;26.80;;;16.48;;
49071;SDS011;74284;52.610;10.236;2024-03-06T07:58:53;35.55;;;16.20;;
49071;SDS011;74284;52.610;10.236;2024-03-06T08:01:19;26.13;;;16.38;;
49071;SDS011;74284;52.610;10.236;2024-03-06T08:03:45;27.00;;;16.77;;
49071;SDS011;74284;52.610;10.236;2024-03-06T08:06:11;26.63;;;16.13;;
49071;SDS011;74284;52.610;10.236;2024-03-06T08:08:36;28.02;;;16.50;;
49071;SDS011;74284;52.610;10.236;2024-03-06T08:11:04;26.48;;;16.38;;
49071;SDS011;74284;52.610;10.236;2024-03-06T08:13:30;24.85;;;15.93;;
49071;SDS011;74284;52.610;10.236;2024-03-06T08:15:55;28.25;;;15.63;;
49071;SDS011;74284;52.610;10.236;2024-03-06T08:18:20;24.50;;;16.20;;
49071;SDS011;74284;52.610;10.236;2024-03-06T08:20:46;26.60;;;16.67;;
49071;SDS011;74284;52.610;10.236;2024-03-06T08:23:11;22.40;;;14.88;;
49071;SDS011;74284;52.610;10.236;2024-03-06T08:25:36;28.58;;;16.15;;
49071;SDS011;74284;52.610;10.236;2024-03-06T08:28:02;24.70;;;16.10;;
49071;SDS011;74284;52.610;10.236;2024-03-06T08:30:28;23.80;;;15.63;;
49071;SDS011;74284;52.610;10.236;2024-03-06T08:32:55;25.00;;;16.75;;
49071;SDS011;74284;52.610;10.236;2024-03-06T08:35:21;24.25;;;16.48;;
49071;SDS011;74284;52.610;10.236;2024-03-06T08:37:48;23.80;;;16.25;;
49071;SDS011;74284;52.610;10.236;2024-03-06T08:40:15;26.83;;;16.73;;
49071;SDS011;74284;52.610;10.236;2024-03-06T08:42:43;26.35;;;16.67;;
49071;SDS011;74284;52.610;10.236;2024-03-06T08:45:09;23.95;;;16.38;;
49071;SDS011;74284;52.610;10.236;2024-03-06T08:47:34;26.33;;;16.50;;
49071;SDS011;74284;52.610;10.236;2024-03-06T08:50:00;24.30;;;15.88;;
49071;SDS011;74284;52.610;10.236;2024-03-06T08:52:27;25.45;;;16.25;;
49071;SDS011;74284;52.610;10.236;2024-03-06T08:54:52;23.38;;;16.15;;
49071;SDS011;74284;52.610;10.236;2024-03-06T08:57:18;26.13;;;15.52;;
49071;SDS011;74284;52.610;10.236;2024-03-06T08:59:46;25.20;;;16.83;;
49071;SDS011;74284;52.610;10.236;2024-03-06T09:02:15;21.10;;;15.15;;
49071;SDS011;74284;52.610;10.236;2024-03-06T09:04:43;24.50;;;16.15;;
49071;SDS011;74284;52.610;10.236;2024-03-06T09:07:09;23.55;;;15.60;;
49071;SDS011;74284;52.610;10.236;2024-03-06T09:09:35;22.40;;;15.70;;
49071;SDS011;74284;52.610;10.236;2024-03-06T09:12:02;25.50;;;15.50;;
49071;SDS011;74284;52.610;10.236;2024-03-06T09:14:30;25.40;;;16.02;;
49071;SDS011;74284;52.610;10.236;2024-03-06T09:16:55;24.50;;;15.32;;
49071;SDS011;74284;52.610;10.236;2024-03-06T09:19:20;22.25;;;14.77;;
49071;SDS011;74284;52.610;10.236;2024-03-06T09:21:45;24.90;;;15.43;;
49071;SDS011;74284;52.610;10.236;2024-03-06T09:24:11;22.80;;;15.10;;
49071;SDS011;74284;52.610;10.236;2024-03-06T09:26:36;28.50;;;15.27;;
49071;SDS011;74284;52.610;10.236;2024-03-06T09:29:02;25.05;;;15.70;;
49071;SDS011;74284;52.610;10.236;2024-03-06T09:31:27;22.48;;;15.30;;
49071;SDS011;74284;52.610;10.236;2024-03-06T09:33:52;21.40;;;14.68;;
49071;SDS011;74284;52.610;10.236;2024-03-06T09:36:18;19.15;;;13.77;;
49071;SDS011;74284;52.610;10.236;2024-03-06T09:38:43;24.60;;;16.37;;
49071;SDS011;74284;52.610;10.236;2024-03-06T09:41:09;18.87;;;13.67;;
49071;SDS011;74284;52.610;10.236;2024-03-06T09:43:34;20.67;;;15.02;;
49071;SDS011;74284;52.610;10.236;2024-03-06T09:45:59;19.05;;;13.95;;
49071;SDS011;74284;52.610;10.236;2024-03-06T09:48:27;21.25;;;14.07;;
49071;SDS011;74284;52.610;10.236;2024-03-06T09:50:54;20.63;;;14.15;;
49071;SDS011;74284;52.610;10.236;2024-03-06T09:53:25;24.92;;;14.68;;
49071;SDS011;74284;52.610;10.236;2024-03-06T09:55:51;21.10;;;13.82;;
49071;SDS011;74284;52.610;10.236;2024-03-06T09:58:17;20.52;;;14.75;;
49071;SDS011;74284;52.610;10.236;2024-03-06T10:00:42;20.75;;;13.82;;
49071;SDS011;74284;52.610;10.236;2024-03-06T10:03:09;22.15;;;14.45;;
49071;SDS011;74284;52.610;10.236;2024-03-06T10:05:34;22.55;;;14.07;;
49071;SDS011;74284;52.610;10.236;2024-03-06T10:08:00;22.30;;;14.80;;
49071;SDS011;74284;52.610;10.236;2024-03-06T10:10:26;21.63;;;13.40;;
49071;SDS011;74284;52.610;10.236;2024-03-06T10:12:51;22.27;;;14.52;;
49071;SDS011;74284;52.610;10.236;2024-03-06T10:15:17;20.88;;;13.60;;
49071;SDS011;74284;52.610;10.236;2024-03-06T10:17:43;19.92;;;13.57;;
49071;SDS011;74284;52.610;10.236;2024-03-06T10:20:16;25.02;;;14.32;;
49071;SDS011;74284;52.610;10.236;2024-03-06T10:22:41;21.83;;;13.40;;
49071;SDS011;74284;52.610;10.236;2024-03-06T10:25:08;22.08;;;12.73;;
49071;SDS011;74284;52.610;10.236;2024-03-06T10:27:34;21.52;;;12.63;;
49071;SDS011;74284;52.610;10.236;2024-03-06T10:30:00;21.17;;;13.00;;
49071;SDS011;74284;52.610;10.236;2024-03-06T10:32:26;19.27;;;12.90;;
49071;SDS011;74284;52.610;10.236;2024-03-06T10:34:51;21.08;;;13.70;;
49071;SDS011;74284;52.610;10.236;2024-03-06T10:37:17;18.60;;;13.50;;
49071;SDS011;74284;52.610;10.236;2024-03-06T10:39:42;18.63;;;13.13;;
49071;SDS011;74284;52.610;10.236;2024-03-06T10:42:09;22.38;;;12.82;;
49071;SDS011;74284;52.610;10.236;2024-03-06T10:44:38;19.40;;;12.45;;
49071;SDS011;74284;52.610;10.236;2024-03-06T10:47:16;18.17;;;12.70;;
49071;SDS011;74284;52.610;10.236;2024-03-06T10:49:43;18.60;;;13.27;;
49071;SDS011;74284;52.610;10.236;2024-03-06T10:52:10;20.85;;;13.05;;
49071;SDS011;74284;52.610;10.236;2024-03-06T10:54:36;18.67;;;12.52;;
49071;SDS011;74284;52.610;10.236;2024-03-06T10:57:06;20.00;;;13.18;;
49071;SDS011;74284;52.610;10.236;2024-03-06T10:59:34;19.45;;;11.60;;
49071;SDS011;74284;52.610;10.236;2024-03-06T11:02:00;23.20;;;13.07;;
49071;SDS011;74284;52.610;10.236;2024-03-06T11:04:28;20.38;;;13.13;;
49071;SDS011;74284;52.610;10.236;2024-03-06T11:06:58;18.75;;;12.80;;
49071;SDS011;74284;52.610;10.236;2024-03-06T11:09:26;20.08;;;12.55;;
49071;SDS011;74284;52.610;10.236;2024-03-06T11:11:52;17.95;;;12.15;;
49071;SDS011;74284;52.610;10.236;2024-03-06T11:14:22;18.88;;;12.25;;
49071;SDS011;74284;52.610;10.236;2024-03-06T11:16:59;19.17;;;13.10;;
49071;SDS011;74284;52.610;10.236;2024-03-06T11:19:28;17.45;;;12.70;;
49071;SDS011;74284;52.610;10.236;2024-03-06T11:21:57;19.52;;;13.52;;
49071;SDS011;74284;52.610;10.236;2024-03-06T11:26:57;21.30;;;13.13;;
49071;SDS011;74284;52.610;10.236;2024-03-06T11:29:23;17.75;;;12.05;;
49071;SDS011;74284;52.610;10.236;2024-03-06T11:32:06;19.90;;;13.07;;
49071;SDS011;74284;52.610;10.236;2024-03-06T11:34:33;19.20;;;13.25;;
49071;SDS011;74284;52.610;10.236;2024-03-06T11:37:00;20.33;;;13.50;;
49071;SDS011;74284;52.610;10.236;2024-03-06T11:39:32;20.73;;;13.68;;
49071;SDS011;74284;52.610;10.236;2024-03-06T11:41:59;16.90;;;12.68;;
49071;SDS011;74284;52.610;10.236;2024-03-06T11:44:26;19.08;;;13.13;;
49071;SDS011;74284;52.610;10.236;2024-03-06T11:47:05;20.77;;;13.05;;
49071;SDS011;74284;52.610;10.236;2024-03-06T11:49:33;19.38;;;13.07;;
49071;SDS011;74284;52.610;10.236;2024-03-06T11:52:00;21.85;;;13.23;;
49071;SDS011;74284;52.610;10.236;2024-03-06T11:54:27;17.95;;;12.35;;
49071;SDS011;74284;52.610;10.236;2024-03-06T11:56:55;19.30;;;13.00;;
49071;SDS011;74284;52.610;10.236;2024-03-06T12:02:01;18.73;;;12.32;;
49071;SDS011;74284;52.610;10.236;2024-03-06T12:04:32;18.42;;;13.57;;
49071;SDS011;74284;52.610;10.236;2024-03-06T12:07:00;19.65;;;13.20;;
49071;SDS011;74284;52.610;10.236;2024-03-06T12:09:35;19.83;;;13.88;;
49071;SDS011;74284;52.610;10.236;2024-03-06T12:12:03;19.52;;;13.45;;
49071;SDS011;74284;52.610;10.236;2024-03-06T12:16:57;19.58;;;13.30;;
49071;SDS011;74284;52.610;10.236;2024-03-06T12:19:27;17.88;;;12.30;;
49071;SDS011;74284;52.610;10.236;2024-03-06T12:21:53;18.23;;;12.02;;
49071;SDS011;74284;52.610;10.236;2024-03-06T12:26:44;19.90;;;13.15;;
49071;SDS011;74284;52.610;10.236;2024-03-06T12:29:10;19.63;;;13.43;;
49071;SDS011;74284;52.610;10.236;2024-03-06T12:31:37;18.55;;;13.10;;
49071;SDS011;74284;52.610;10.236;2024-03-06T12:34:04;20.15;;;11.77;;
49071;SDS011;74284;52.610;10.236;2024-03-06T12:36:31;18.35;;;12.50;;
49071;SDS011;74284;52.610;10.236;2024-03-06T12:39:01;22.50;;;13.02;;
49071;SDS011;74284;52.610;10.236;2024-03-06T12:41:28;17.38;;;11.27;;
49071;SDS011;74284;52.610;10.236;2024-03-06T12:43:54;18.42;;;12.65;;
49071;SDS011;74284;52.610;10.236;2024-03-06T12:46:21;19.88;;;12.55;;
49071;SDS011;74284;52.610;10.236;2024-03-06T12:48:47;17.52;;;12.73;;
49071;SDS011;74284;52.610;10.236;2024-03-06T12:53:38;18.20;;;13.18;;
49071;SDS011;74284;52.610;10.236;2024-03-06T12:56:05;19.80;;;13.40;;
49071;SDS011;74284;52.610;10.236;2024-03-06T13:01:02;18.67;;;12.52;;
49071;SDS011;74284;52.610;10.236;2024-03-06T13:05:53;19.30;;;13.02;;
49071;SDS011;74284;52.610;10.236;2024-03-06T13:10:43;20.23;;;13.05;;
49071;SDS011;74284;52.610;10.236;2024-03-06T13:13:10;20.42;;;13.52;;
49071;SDS011;74284;52.610;10.236;2024-03-06T13:18:01;18.23;;;13.00;;
49071;SDS011;74284;52.610;10.236;2024-03-06T13:20:28;18.08;;;13.02;;
49071;SDS011;74284;52.610;10.236;2024-03-06T13:22:56;19.02;;;12.38;;
49071;SDS011;74284;52.610;10.236;2024-03-06T13:27:47;15.25;;;11.95;;
49071;SDS011;74284;52.610;10.236;2024-03-06T13:30:12;19.55;;;12.05;;
49071;SDS011;74284;52.610;10.236;2024-03-06T13:35:03;17.60;;;12.40;;
49071;SDS011;74284;52.610;10.236;2024-03-06T13:37:31;20.13;;;13.38;;
49071;SDS011;74284;52.610;10.236;2024-03-06T13:42:26;16.73;;;12.35;;
49071;SDS011;74284;52.610;10.236;2024-03-06T13:44:52;18.95;;;12.90;;
49071;SDS011;74284;52.610;10.236;2024-03-06T13:47:18;17.33;;;12.82;;
49071;SDS011;74284;52.610;10.236;2024-03-06T13:52:09;19.48;;;13.75;;
49071;SDS011;74284;52.610;10.236;2024-03-06T13:57:02;18.92;;;13.35;;
49071;SDS011;74284;52.610;10.236;2024-03-06T13:59:29;18.73;;;13.32;;
49071;SDS011;74284;52.610;10.236;2024-03-06T14:01:56;19.02;;;13.73;;
49071;SDS011;74284;52.610;10.236;2024-03-06T14:06:47;19.20;;;13.55;;
49071;SDS011;74284;52.610;10.236;2024-03-06T14:09:13;18.23;;;13.55;;
49071;SDS011;74284;52.610;10.236;2024-03-06T14:14:05;22.13;;;13.48;;
49071;SDS011;74284;52.610;10.236;2024-03-06T14:18:56;18.88;;;13.65;;
49071;SDS011;74284;52.610;10.236;2024-03-06T14:23:47;16.40;;;13.38;;
49071;SDS011;74284;52.610;10.236;2024-03-06T14:26:12;19.33;;;13.70;;
49071;SDS011;74284;52.610;10.236;2024-03-06T14:31:03;19.23;;;14.07;;
49071;SDS011;74284;52.610;10.236;2024-03-06T14:35:54;19.08;;;14.13;;
49071;SDS011;74284;52.610;10.236;2024-03-06T14:40:45;18.48;;;13.13;;
49071;SDS011;74284;52.610;10.236;2024-03-06T14:45:35;20.58;;;14.60;;
49071;SDS011;74284;52.610;10.236;2024-03-06T14:48:07;19.08;;;13.60;;
49071;SDS011;74284;52.610;10.236;2024-03-06T14:52:58;19.50;;;12.77;;
49071;SDS011;74284;52.610;10.236;2024-03-06T14:55:23;20.15;;;13.18;;
49071;SDS011;74284;52.610;10.236;2024-03-06T15:00:14;21.90;;;13.85;;
49071;SDS011;74284;52.610;10.236;2024-03-06T15:02:42;21.92;;;12.82;;
49071;SDS011;74284;52.610;10.236;2024-03-06T15:07:37;16.92;;;13.18;;
49071;SDS011;74284;52.610;10.236;2024-03-06T15:10:04;17.90;;;12.63;;
49071;SDS011;74284;52.610;10.236;2024-03-06T15:12:30;17.23;;;12.73;;
49071;SDS011;74284;52.610;10.236;2024-03-06T15:17:23;19.17;;;13.60;;
49071;SDS011;74284;52.610;10.236;2024-03-06T15:19:49;17.67;;;13.25;;
49071;SDS011;74284;52.610;10.236;2024-03-06T15:24:40;19.90;;;13.77;;
49071;SDS011;74284;52.610;10.236;2024-03-06T15:29:30;19.75;;;14.15;;